createdAt,value
2019-02-20T00:01:39.485Z,81.35
2019-02-20T00:04:48.066Z,81.75
2019-02-20T00:08:06.977Z,81.50
2019-02-20T00:11:16.161Z,81.82
2019-02-20T00:14:35.075Z,81.91
2019-02-20T00:17:43.775Z,81.66
2019-02-20T00:20:52.426Z,81.62
2019-02-20T00:24:01.136Z,81.58
2019-02-20T00:27:09.705Z,81.82
2019-02-20T00:30:18.727Z,82.08
2019-02-20T00:33:27.298Z,81.91
2019-02-20T00:36:35.877Z,82.04
2019-02-20T00:39:45.010Z,81.47
2019-02-20T00:42:53.675Z,81.40
2019-02-20T00:46:36.575Z,81.34
2019-02-20T00:49:48.341Z,80.82
2019-02-20T00:53:08.631Z,81.19
2019-02-20T00:56:17.128Z,81.63
2019-02-20T00:59:25.767Z,81.62
2019-02-20T01:02:34.350Z,81.47
2019-02-20T01:05:42.940Z,81.47
2019-02-20T01:08:51.629Z,80.68
2019-02-20T01:12:10.709Z,80.93
2019-02-20T01:15:19.282Z,80.81
2019-02-20T01:18:27.875Z,80.81
2019-02-20T01:21:36.391Z,81.08
2019-02-20T01:24:44.896Z,80.61
2019-02-20T01:27:53.512Z,81.04
2019-02-20T01:31:12.398Z,80.88
2019-02-20T01:34:20.869Z,81.16
2019-02-20T01:37:29.432Z,81.05
2019-02-20T01:40:38.062Z,80.84
2019-02-20T01:43:46.523Z,80.47
2019-02-20T01:47:05.248Z,80.38
2019-02-20T01:50:13.876Z,80.12
2019-02-20T01:53:22.343Z,80.21
2019-02-20T01:56:30.926Z,80.41
2019-02-20T01:59:39.473Z,79.97
2019-02-20T02:02:58.190Z,80.84
2019-02-20T02:06:06.655Z,81.00
2019-02-20T02:09:15.282Z,80.90
2019-02-20T02:12:24.314Z,80.63
2019-02-20T02:15:33.073Z,81.40
2019-02-20T02:18:41.668Z,81.14
2019-02-20T02:21:50.240Z,81.38
2019-02-20T02:24:58.708Z,82.26
2019-02-20T02:28:17.530Z,82.89
2019-02-20T02:31:26.120Z,82.75
2019-02-20T02:34:34.765Z,82.95
2019-02-20T02:37:43.250Z,83.10
2019-02-20T02:40:51.878Z,82.78
2019-02-20T02:44:00.452Z,82.79
2019-02-20T02:47:19.286Z,82.27
2019-02-20T02:50:27.890Z,82.18
2019-02-20T02:53:36.458Z,82.55
2019-02-20T02:56:45.044Z,81.87
2019-02-20T02:59:53.846Z,82.01
2019-02-20T03:03:02.456Z,82.14
2019-02-20T03:06:22.639Z,82.15
2019-02-20T03:09:31.287Z,81.94
2019-02-20T03:12:39.940Z,81.77
2019-02-20T03:15:48.654Z,81.68
2019-02-20T03:18:57.291Z,81.45
2019-02-20T03:22:05.886Z,80.76
2019-02-20T03:25:14.637Z,80.65
2019-02-20T03:28:23.261Z,80.69
2019-02-20T03:47:04.602Z,81.49
2019-02-20T03:50:13.252Z,81.77
2019-02-20T03:53:21.870Z,81.71
2019-02-20T03:56:30.653Z,82.00
2019-02-20T03:59:39.235Z,81.87
2019-02-20T04:02:47.835Z,81.73
2019-02-20T04:05:56.383Z,81.88
2019-02-20T04:09:15.277Z,81.59
2019-02-20T04:12:23.740Z,81.66
2019-02-20T04:15:32.412Z,81.61
2019-02-20T04:18:41.200Z,81.76
2019-02-20T04:21:49.796Z,81.88
2019-02-20T04:24:58.377Z,82.15
2019-02-20T04:28:07.121Z,81.95
2019-02-20T04:31:15.824Z,82.26
2019-02-20T04:34:24.440Z,82.24
2019-02-20T04:37:43.325Z,82.01
2019-02-20T04:40:52.083Z,81.79
2019-02-20T04:44:00.884Z,81.36
2019-02-20T04:47:09.390Z,81.61
2019-02-20T04:50:18.013Z,81.55
2019-02-20T04:53:26.518Z,81.50
2019-02-20T04:56:35.100Z,81.56
2019-02-20T04:59:54.046Z,81.68
2019-02-20T05:03:02.549Z,81.20
2019-02-20T05:06:11.047Z,81.33
2019-02-20T05:09:19.711Z,81.34
2019-02-20T05:12:28.324Z,81.58
2019-02-20T05:15:36.798Z,81.78
2019-02-20T05:18:55.714Z,81.41
2019-02-20T05:22:04.217Z,81.62
2019-02-20T05:25:12.737Z,81.48
2019-02-20T05:28:21.324Z,81.60
2019-02-20T05:31:29.967Z,81.96
2019-02-20T05:34:38.630Z,81.51
2019-02-20T05:37:47.299Z,81.85
2019-02-20T05:41:06.178Z,82.16
2019-02-20T05:44:14.795Z,82.12
2019-02-20T05:47:23.387Z,82.01
2019-02-20T05:50:32.080Z,82.03
2019-02-20T05:53:40.702Z,82.08
2019-02-20T05:56:49.232Z,82.10
2019-02-20T05:59:58.458Z,82.15
2019-02-20T06:03:06.986Z,82.06
2019-02-20T06:06:15.555Z,82.40
2019-02-20T06:09:34.377Z,82.39
2019-02-20T06:12:42.962Z,82.21
2019-02-20T06:15:51.569Z,82.15
2019-02-20T06:19:00.230Z,82.11
2019-02-20T06:22:08.741Z,82.41
2019-02-20T06:25:17.387Z,82.38
2019-02-20T06:28:26.036Z,82.03
2019-02-20T06:31:33.126Z,82.31
2019-02-20T06:34:52.130Z,82.57
2019-02-20T06:38:00.877Z,82.47
2019-02-20T06:41:09.411Z,82.54
2019-02-20T06:44:17.995Z,82.56
2019-02-20T06:47:26.601Z,82.49
2019-02-20T06:50:35.283Z,82.62
2019-02-20T06:53:43.894Z,82.49
2019-02-20T06:57:02.623Z,82.27
2019-02-20T07:00:12.494Z,82.19
2019-02-20T07:03:23.627Z,81.98
2019-02-20T07:07:10.750Z,82.03
2019-02-20T07:11:03.536Z,82.21
2019-02-20T07:15:30.429Z,82.29
2019-02-20T07:19:18.158Z,82.16
2019-02-20T07:22:54.290Z,81.66
2019-02-20T07:26:37.863Z,81.39
2019-02-20T07:29:45.096Z,81.73
2019-02-20T07:32:53.687Z,81.96
2019-02-20T07:36:12.399Z,81.73
2019-02-20T07:39:21.068Z,81.59
2019-02-20T07:42:30.155Z,81.53
2019-02-20T07:45:38.862Z,81.29
2019-02-20T07:48:47.636Z,81.56
2019-02-20T07:51:56.270Z,81.28
2019-02-20T07:55:12.998Z,80.94
2019-02-20T07:58:15.347Z,81.10
2019-02-20T08:01:24.105Z,81.26
2019-02-20T08:04:39.035Z,81.20
2019-02-20T08:07:47.579Z,80.86
2019-02-20T08:10:57.373Z,80.22
2019-02-20T08:14:04.862Z,80.76
2019-02-20T08:17:23.833Z,80.34
2019-02-20T08:20:32.539Z,79.60
2019-02-20T08:23:39.518Z,79.39
2019-02-20T08:26:48.018Z,79.90
2019-02-20T08:29:56.755Z,79.78
2019-02-20T08:33:05.315Z,79.05
2019-02-20T08:36:13.951Z,79.88
2019-02-20T08:39:32.730Z,79.78
2019-02-20T08:42:41.365Z,79.47
2019-02-20T08:45:49.952Z,79.41
2019-02-20T08:48:58.701Z,79.42
2019-02-20T08:52:07.310Z,79.53
2019-02-20T08:55:15.898Z,79.85
2019-02-20T08:58:24.509Z,79.53
2019-02-20T09:01:43.253Z,79.21
2019-02-20T09:04:51.962Z,79.00
2019-02-20T09:08:01.684Z,78.70
2019-02-20T09:11:10.351Z,78.67
2019-02-20T09:14:20.050Z,78.68
2019-02-20T09:17:28.770Z,79.45
2019-02-20T09:20:37.364Z,79.06
2019-02-20T09:23:45.951Z,79.29
2019-02-20T09:26:54.533Z,79.19
2019-02-20T09:30:03.158Z,79.15
2019-02-20T09:33:11.773Z,78.86
2019-02-20T09:36:30.654Z,78.21
2019-02-20T09:39:43.143Z,78.31
2019-02-20T09:42:51.537Z,78.21
2019-02-20T09:46:01.320Z,78.58
2019-02-20T09:49:10.042Z,77.49
2019-02-20T09:52:18.675Z,77.59
2019-02-20T09:55:27.292Z,77.27
2019-02-20T09:58:35.920Z,77.36
2019-02-20T10:01:54.901Z,77.67
2019-02-20T10:05:03.507Z,77.48
2019-02-20T10:08:12.113Z,76.93
2019-02-20T10:11:20.793Z,77.17
2019-02-20T10:14:29.403Z,76.10
2019-02-20T10:17:37.993Z,75.30
2019-02-20T10:20:46.623Z,75.32
2019-02-20T10:24:05.383Z,75.62
2019-02-20T10:27:15.551Z,74.76
2019-02-20T10:30:24.148Z,74.95
2019-02-20T10:33:32.640Z,74.44
2019-02-20T10:36:41.292Z,74.31
2019-02-20T10:39:50.021Z,74.55
2019-02-20T10:42:58.713Z,73.42
2019-02-20T10:46:17.554Z,73.49
2019-02-20T10:49:26.238Z,73.36
2019-02-20T10:52:34.824Z,73.37
2019-02-20T10:55:43.436Z,72.83
2019-02-20T10:58:52.073Z,72.68
2019-02-20T11:02:00.686Z,72.44
2019-02-20T11:05:09.431Z,71.63
2019-02-20T11:08:28.206Z,70.74
2019-02-20T11:11:36.747Z,70.60
2019-02-20T11:14:45.365Z,70.68
2019-02-20T11:17:53.963Z,70.36
2019-02-20T11:21:03.964Z,71.08
2019-02-20T11:24:12.563Z,70.88
2019-02-20T11:27:31.477Z,71.35
2019-02-20T11:30:40.234Z,72.26
2019-02-20T11:33:48.777Z,71.80
2019-02-20T11:36:57.426Z,72.44
2019-02-20T11:40:07.211Z,71.67
2019-02-20T11:43:26.001Z,72.05
2019-02-20T11:46:34.523Z,72.19
2019-02-20T11:49:43.142Z,72.37
2019-02-20T11:52:51.760Z,72.19
2019-02-20T11:56:00.276Z,71.90
2019-02-20T11:59:18.980Z,71.41
2019-02-20T12:02:27.599Z,71.07
2019-02-20T12:05:36.193Z,70.50
2019-02-20T12:08:44.719Z,70.89
2019-02-20T12:11:54.749Z,71.41
2019-02-20T12:15:13.916Z,70.98
2019-02-20T12:18:32.937Z,69.54
2019-02-20T12:21:41.551Z,70.11
2019-02-20T12:24:50.146Z,70.12
2019-02-20T12:27:58.666Z,69.63
2019-02-20T12:31:07.267Z,69.89
2019-02-20T12:34:15.780Z,69.80
2019-02-20T12:37:34.640Z,69.36
2019-02-20T12:40:43.302Z,69.92
2019-02-20T12:43:51.811Z,69.35
2019-02-20T12:47:00.467Z,69.63
2019-02-20T12:50:09.674Z,68.62
2019-02-20T12:53:18.224Z,68.92
2019-02-20T12:56:26.838Z,69.35
2019-02-20T12:59:36.750Z,68.60
2019-02-20T13:02:55.593Z,68.93
2019-02-20T13:06:04.287Z,69.08
2019-02-20T13:09:13.914Z,68.24
2019-02-20T13:12:22.534Z,67.16
2019-02-20T13:15:41.337Z,65.22
2019-02-20T13:18:49.964Z,63.80
2019-02-20T13:21:58.592Z,64.45
2019-02-20T13:25:07.690Z,64.03
2019-02-20T13:28:16.208Z,63.89
2019-02-20T13:31:24.703Z,63.99
2019-02-20T13:34:31.831Z,63.76
2019-02-20T13:37:40.472Z,62.54
2019-02-20T13:40:49.091Z,62.26
2019-02-20T13:44:08.762Z,61.97
2019-02-20T13:47:18.682Z,62.13
2019-02-20T13:50:27.401Z,62.33
2019-02-20T13:53:36.034Z,61.87
2019-02-20T13:56:44.532Z,61.30
2019-02-20T14:00:03.359Z,60.74
2019-02-20T14:03:13.180Z,61.38
2019-02-20T14:06:21.964Z,61.35
2019-02-20T14:09:32.588Z,61.14
2019-02-20T14:12:41.192Z,61.52
2019-02-20T14:15:51.027Z,61.77
2019-02-20T14:18:58.759Z,61.73
2019-02-20T14:22:07.896Z,62.51
2019-02-20T14:25:16.589Z,62.54
2019-02-20T14:28:25.250Z,62.75
2019-02-20T14:31:33.898Z,62.21
2019-02-20T14:34:42.534Z,61.69
2019-02-20T14:37:51.153Z,62.06
2019-02-20T14:41:00.852Z,63.15
2019-02-20T14:44:11.056Z,63.10
2019-02-20T14:47:19.646Z,63.75
2019-02-20T14:50:28.296Z,64.02
2019-02-20T14:53:36.918Z,64.77
2019-02-20T14:56:45.917Z,64.85
2019-02-20T14:59:54.451Z,64.51
2019-02-20T15:03:03.078Z,64.22
2019-02-20T15:06:23.112Z,64.05
2019-02-20T15:09:31.855Z,64.59
2019-02-20T15:12:40.456Z,64.83
2019-02-20T15:15:49.311Z,65.47
2019-02-20T15:19:00.585Z,65.96
2019-02-20T15:22:19.619Z,66.70
2019-02-20T15:25:28.268Z,67.30
2019-02-20T15:28:36.940Z,67.18
2019-02-20T15:31:45.488Z,66.80
2019-02-20T15:34:56.798Z,66.54
2019-02-20T15:38:05.484Z,65.71
2019-02-20T15:41:14.205Z,66.07
2019-02-20T15:44:22.972Z,66.16
2019-02-20T15:47:31.579Z,66.17
2019-02-20T15:50:40.307Z,65.14
2019-02-20T15:53:48.920Z,65.36
2019-02-20T15:56:57.562Z,66.17
2019-02-20T16:00:08.758Z,65.91
2019-02-20T16:03:21.889Z,65.83
2019-02-20T16:06:30.508Z,65.68
2019-02-20T16:09:39.167Z,66.09
2019-02-20T16:12:48.139Z,66.29
2019-02-20T16:15:56.763Z,66.50
2019-02-20T16:19:05.300Z,66.79
2019-02-20T16:22:13.911Z,66.66
2019-02-20T16:25:23.837Z,66.31
2019-02-20T16:28:42.991Z,66.16
2019-02-20T16:31:51.614Z,66.11
2019-02-20T16:35:00.289Z,65.58
2019-02-20T16:38:09.842Z,65.27
2019-02-20T16:41:28.814Z,64.86
2019-02-20T16:44:37.496Z,65.48
2019-02-20T16:47:46.085Z,65.29
2019-02-20T16:50:55.510Z,66.40
2019-02-20T16:54:17.107Z,66.57
2019-02-20T16:57:24.250Z,67.11
2019-02-20T17:00:32.933Z,67.20
2019-02-20T17:03:41.829Z,67.50
2019-02-20T17:06:50.475Z,67.30
2019-02-20T17:09:59.187Z,66.51
2019-02-20T17:13:07.769Z,66.98
2019-02-20T17:16:16.303Z,66.40
2019-02-20T17:19:26.398Z,65.85
2019-02-20T17:22:45.405Z,65.65
2019-02-20T17:25:54.097Z,65.44
2019-02-20T17:29:02.703Z,65.15
2019-02-20T17:32:12.632Z,65.01
2019-02-20T17:35:21.569Z,64.90
2019-02-20T17:38:30.134Z,64.56
2019-02-20T17:41:39.438Z,63.93
2019-02-20T17:44:48.068Z,64.42
2019-02-20T17:47:56.809Z,64.72
2019-02-20T17:51:05.446Z,64.31
2019-02-20T17:54:14.045Z,64.30
2019-02-20T17:57:22.712Z,64.60
2019-02-20T18:00:41.603Z,65.06
2019-02-20T18:03:50.106Z,65.27
2019-02-20T18:06:58.816Z,65.48
2019-02-20T18:10:08.830Z,66.00
2019-02-20T18:13:17.431Z,65.90
2019-02-20T18:16:26.015Z,65.49
2019-02-20T18:19:33.016Z,65.27
2019-02-20T18:22:52.015Z,65.44
2019-02-20T18:26:00.528Z,65.21
2019-02-20T18:29:09.061Z,64.94
2019-02-20T18:32:17.572Z,64.69
2019-02-20T18:35:26.200Z,64.69
2019-02-20T18:38:45.052Z,64.82
2019-02-20T18:41:53.670Z,65.08
2019-02-20T18:45:02.244Z,65.15
2019-02-20T18:48:10.854Z,65.14
2019-02-20T18:51:19.500Z,65.08
2019-02-20T18:54:28.100Z,65.07
2019-02-20T18:57:46.888Z,65.19
2019-02-20T19:00:55.498Z,65.17
2019-02-20T19:04:04.110Z,65.06
2019-02-20T19:07:14.342Z,65.35
2019-02-20T19:10:34.560Z,65.35
2019-02-20T19:14:09.344Z,65.13
2019-02-20T19:18:37.992Z,64.88
2019-02-20T19:22:20.743Z,65.18
2019-02-20T19:26:27.342Z,64.79
2019-02-20T19:30:51.105Z,64.66
2019-02-20T19:34:42.872Z,64.22
2019-02-20T19:38:35.120Z,64.32
2019-02-20T19:42:35.924Z,64.31
2019-02-20T19:46:18.680Z,64.45
2019-02-20T19:50:28.992Z,64.39
2019-02-20T19:54:27.321Z,64.06
2019-02-20T19:58:15.506Z,64.04
2019-02-20T20:01:57.130Z,63.72
2019-02-20T20:05:53.530Z,63.85
2019-02-20T20:10:05.408Z,63.94
2019-02-20T20:13:45.512Z,63.72
2019-02-20T20:17:40.984Z,63.65
2019-02-20T20:21:10.456Z,63.52
2019-02-20T20:25:07.922Z,63.77
2019-02-20T20:29:05.534Z,63.72
2019-02-20T20:32:37.205Z,64.01
2019-02-20T20:36:30.443Z,63.89
2019-02-20T20:40:46.173Z,64.22
2019-02-20T20:44:30.060Z,64.06
2019-02-20T20:48:20.053Z,64.31
2019-02-20T20:52:27.156Z,64.44
2019-02-20T20:56:31.889Z,64.69
2019-02-20T21:00:44.203Z,65.04
2019-02-20T21:04:44.155Z,65.25
2019-02-20T21:08:43.815Z,64.97
2019-02-20T21:12:57.580Z,65.26
2019-02-20T21:16:54.745Z,65.58
2019-02-20T21:21:33.458Z,65.53
2019-02-20T21:25:39.897Z,65.37
2019-02-20T21:29:41.749Z,65.32
2019-02-20T21:33:49.635Z,65.56
2019-02-20T21:38:02.582Z,65.57
2019-02-20T21:41:36.049Z,65.63
2019-02-20T21:45:29.580Z,65.76
2019-02-20T21:49:12.061Z,65.61
2019-02-20T21:53:07.543Z,65.51
2019-02-20T21:57:00.805Z,65.93
2019-02-20T22:00:56.172Z,65.81
2019-02-20T22:04:28.082Z,66.01
2019-02-20T22:08:41.285Z,66.28
2019-02-20T22:12:27.599Z,66.05
2019-02-20T22:16:24.365Z,66.38
2019-02-20T22:20:49.176Z,66.32
2019-02-20T22:24:30.432Z,66.93
2019-02-20T22:28:17.073Z,67.01
2019-02-20T22:32:21.453Z,66.83
2019-02-20T22:36:35.418Z,67.42
2019-02-20T22:40:32.040Z,67.50
2019-02-20T22:44:40.479Z,67.58
2019-02-20T22:48:27.820Z,67.71
2019-02-20T22:52:31.405Z,67.79
2019-02-20T22:56:42.173Z,67.93
2019-02-20T23:00:34.367Z,68.27
2019-02-20T23:04:09.100Z,67.86
2019-02-20T23:07:49.621Z,68.01
2019-02-20T23:12:10.587Z,67.96
2019-02-20T23:15:19.082Z,68.53
2019-02-20T23:18:27.598Z,68.34
2019-02-20T23:21:36.070Z,68.29
2019-02-20T23:24:54.996Z,68.23
2019-02-20T23:28:03.498Z,68.74
2019-02-20T23:31:12.084Z,68.71
2019-02-20T23:34:20.698Z,69.28
2019-02-20T23:37:29.344Z,68.65
2019-02-20T23:40:38.176Z,68.52
2019-02-20T23:43:46.769Z,68.58
2019-02-20T23:47:06.562Z,68.34
2019-02-20T23:50:15.178Z,68.52
2019-02-20T23:53:23.759Z,68.62
2019-02-20T23:56:32.255Z,68.89
2019-02-20T23:59:40.971Z,68.54
